sensor_id;sensor_type;location;lat;lon;timestamp;P1;durP1;ratioP1;P2;durP2;ratioP2
83707;SDS011;73692;49.562;11.144;2023-10-31T00:01:14;14.07;;;9.32;;
83707;SDS011;73692;49.562;11.144;2023-10-31T00:03:40;13.45;;;9.18;;
83707;SDS011;73692;49.562;11.144;2023-10-31T00:06:07;13.68;;;9.50;;
83707;SDS011;73692;49.562;11.144;2023-10-31T00:08:32;14.00;;;9.35;;
83707;SDS011;73692;49.562;11.144;2023-10-31T00:10:58;13.40;;;8.57;;
83707;SDS011;73692;49.562;11.144;2023-10-31T00:13:23;12.10;;;7.77;;
83707;SDS011;73692;49.562;11.144;2023-10-31T00:15:48;14.07;;;8.20;;
83707;SDS011;73692;49.562;11.144;2023-10-31T00:20:40;10.25;;;6.53;;
83707;SDS011;73692;49.562;11.144;2023-10-31T00:23:05;11.97;;;7.23;;
83707;SDS011;73692;49.562;11.144;2023-10-31T00:25:30;12.13;;;8.00;;
83707;SDS011;73692;49.562;11.144;2023-10-31T00:27:55;13.18;;;8.45;;
83707;SDS011;73692;49.562;11.144;2023-10-31T00:30:21;11.48;;;7.55;;
83707;SDS011;73692;49.562;11.144;2023-10-31T00:32:46;9.63;;;6.50;;
83707;SDS011;73692;49.562;11.144;2023-10-31T00:35:11;9.63;;;7.22;;
83707;SDS011;73692;49.562;11.144;2023-10-31T00:37:37;11.50;;;6.72;;
83707;SDS011;73692;49.562;11.144;2023-10-31T00:40:04;10.07;;;6.03;;
83707;SDS011;73692;49.562;11.144;2023-10-31T00:42:31;9.70;;;5.10;;
83707;SDS011;73692;49.562;11.144;2023-10-31T00:44:56;8.80;;;5.38;;
83707;SDS011;73692;49.562;11.144;2023-10-31T00:47:22;8.02;;;5.30;;
83707;SDS011;73692;49.562;11.144;2023-10-31T00:49:47;8.43;;;5.23;;
83707;SDS011;73692;49.562;11.144;2023-10-31T00:52:12;9.93;;;5.90;;
83707;SDS011;73692;49.562;11.144;2023-10-31T00:54:38;10.25;;;6.03;;
83707;SDS011;73692;49.562;11.144;2023-10-31T00:57:03;8.82;;;6.35;;
83707;SDS011;73692;49.562;11.144;2023-10-31T00:59:28;11.13;;;6.97;;
83707;SDS011;73692;49.562;11.144;2023-10-31T01:01:54;9.13;;;5.93;;
83707;SDS011;73692;49.562;11.144;2023-10-31T01:04:19;7.95;;;5.38;;
83707;SDS011;73692;49.562;11.144;2023-10-31T01:06:45;9.65;;;5.70;;
83707;SDS011;73692;49.562;11.144;2023-10-31T01:09:10;8.45;;;5.90;;
83707;SDS011;73692;49.562;11.144;2023-10-31T01:11:36;8.20;;;5.50;;
83707;SDS011;73692;49.562;11.144;2023-10-31T01:14:01;6.35;;;4.32;;
83707;SDS011;73692;49.562;11.144;2023-10-31T01:16:28;7.25;;;4.20;;
83707;SDS011;73692;49.562;11.144;2023-10-31T01:18:53;5.78;;;4.22;;
83707;SDS011;73692;49.562;11.144;2023-10-31T01:21:18;6.40;;;3.75;;
83707;SDS011;73692;49.562;11.144;2023-10-31T01:23:43;6.90;;;3.90;;
83707;SDS011;73692;49.562;11.144;2023-10-31T01:26:09;9.02;;;3.70;;
83707;SDS011;73692;49.562;11.144;2023-10-31T01:28:34;4.78;;;3.38;;
83707;SDS011;73692;49.562;11.144;2023-10-31T01:30:59;4.53;;;2.90;;
83707;SDS011;73692;49.562;11.144;2023-10-31T01:33:25;4.68;;;3.13;;
83707;SDS011;73692;49.562;11.144;2023-10-31T01:35:50;4.38;;;2.88;;
83707;SDS011;73692;49.562;11.144;2023-10-31T01:38:16;4.88;;;3.20;;
83707;SDS011;73692;49.562;11.144;2023-10-31T01:40:41;6.03;;;3.63;;
83707;SDS011;73692;49.562;11.144;2023-10-31T01:43:07;5.70;;;3.63;;
83707;SDS011;73692;49.562;11.144;2023-10-31T01:45:32;5.50;;;3.60;;
83707;SDS011;73692;49.562;11.144;2023-10-31T01:47:57;5.63;;;4.03;;
83707;SDS011;73692;49.562;11.144;2023-10-31T01:50:23;6.55;;;3.75;;
83707;SDS011;73692;49.562;11.144;2023-10-31T01:52:49;5.20;;;2.97;;
83707;SDS011;73692;49.562;11.144;2023-10-31T01:55:14;7.45;;;3.95;;
83707;SDS011;73692;49.562;11.144;2023-10-31T01:57:40;5.60;;;3.88;;
83707;SDS011;73692;49.562;11.144;2023-10-31T02:00:05;6.53;;;4.28;;
83707;SDS011;73692;49.562;11.144;2023-10-31T02:02:32;6.90;;;3.78;;
83707;SDS011;73692;49.562;11.144;2023-10-31T02:04:58;7.10;;;4.32;;
83707;SDS011;73692;49.562;11.144;2023-10-31T02:07:24;4.28;;;2.90;;
83707;SDS011;73692;49.562;11.144;2023-10-31T02:09:49;5.03;;;3.17;;
83707;SDS011;73692;49.562;11.144;2023-10-31T02:12:34;4.70;;;2.70;;
83707;SDS011;73692;49.562;11.144;2023-10-31T02:15:00;3.55;;;2.28;;
83707;SDS011;73692;49.562;11.144;2023-10-31T02:17:25;3.45;;;1.90;;
83707;SDS011;73692;49.562;11.144;2023-10-31T02:19:50;3.83;;;2.17;;
83707;SDS011;73692;49.562;11.144;2023-10-31T02:22:16;3.33;;;1.92;;
83707;SDS011;73692;49.562;11.144;2023-10-31T02:24:41;3.20;;;1.90;;
83707;SDS011;73692;49.562;11.144;2023-10-31T02:27:06;3.13;;;1.67;;
83707;SDS011;73692;49.562;11.144;2023-10-31T02:29:32;2.38;;;1.10;;
83707;SDS011;73692;49.562;11.144;2023-10-31T02:31:57;3.00;;;1.60;;
83707;SDS011;73692;49.562;11.144;2023-10-31T02:34:22;3.20;;;1.37;;
83707;SDS011;73692;49.562;11.144;2023-10-31T02:36:48;2.45;;;1.20;;
83707;SDS011;73692;49.562;11.144;2023-10-31T02:39:13;3.22;;;1.52;;
83707;SDS011;73692;49.562;11.144;2023-10-31T02:41:39;2.17;;;1.08;;
83707;SDS011;73692;49.562;11.144;2023-10-31T02:44:04;2.95;;;1.17;;
83707;SDS011;73692;49.562;11.144;2023-10-31T02:46:29;2.92;;;0.77;;
83707;SDS011;73692;49.562;11.144;2023-10-31T02:48:54;1.95;;;0.73;;
83707;SDS011;73692;49.562;11.144;2023-10-31T02:51:20;11.70;;;1.75;;
83707;SDS011;73692;49.562;11.144;2023-10-31T02:53:45;3.00;;;0.60;;
83707;SDS011;73692;49.562;11.144;2023-10-31T02:58:36;2.03;;;0.80;;
83707;SDS011;73692;49.562;11.144;2023-10-31T03:01:01;2.65;;;0.73;;
83707;SDS011;73692;49.562;11.144;2023-10-31T03:03:26;1.20;;;0.50;;
83707;SDS011;73692;49.562;11.144;2023-10-31T03:05:52;1.52;;;0.70;;
83707;SDS011;73692;49.562;11.144;2023-10-31T03:10:46;3.60;;;0.80;;
83707;SDS011;73692;49.562;11.144;2023-10-31T03:13:14;1.80;;;0.77;;
83707;SDS011;73692;49.562;11.144;2023-10-31T03:15:40;1.92;;;0.93;;
83707;SDS011;73692;49.562;11.144;2023-10-31T03:18:05;3.97;;;0.67;;
83707;SDS011;73692;49.562;11.144;2023-10-31T03:20:30;1.27;;;0.70;;
83707;SDS011;73692;49.562;11.144;2023-10-31T03:22:56;2.65;;;0.80;;
83707;SDS011;73692;49.562;11.144;2023-10-31T03:25:21;1.52;;;0.75;;
83707;SDS011;73692;49.562;11.144;2023-10-31T03:27:46;2.23;;;0.40;;
83707;SDS011;73692;49.562;11.144;2023-10-31T03:30:12;2.13;;;0.53;;
83707;SDS011;73692;49.562;11.144;2023-10-31T03:32:37;1.20;;;0.73;;
83707;SDS011;73692;49.562;11.144;2023-10-31T03:35:02;3.67;;;0.70;;
83707;SDS011;73692;49.562;11.144;2023-10-31T03:37:28;2.28;;;0.57;;
83707;SDS011;73692;49.562;11.144;2023-10-31T03:39:53;2.47;;;0.60;;
83707;SDS011;73692;49.562;11.144;2023-10-31T03:42:18;1.80;;;0.80;;
83707;SDS011;73692;49.562;11.144;2023-10-31T03:44:44;1.33;;;0.55;;
83707;SDS011;73692;49.562;11.144;2023-10-31T03:47:09;1.33;;;0.43;;
83707;SDS011;73692;49.562;11.144;2023-10-31T03:49:37;2.50;;;0.77;;
83707;SDS011;73692;49.562;11.144;2023-10-31T03:52:03;1.77;;;0.93;;
83707;SDS011;73692;49.562;11.144;2023-10-31T03:54:29;1.58;;;0.70;;
83707;SDS011;73692;49.562;11.144;2023-10-31T03:56:54;1.02;;;0.52;;
83707;SDS011;73692;49.562;11.144;2023-10-31T03:59:19;1.70;;;0.83;;
83707;SDS011;73692;49.562;11.144;2023-10-31T04:01:44;0.70;;;0.47;;
83707;SDS011;73692;49.562;11.144;2023-10-31T04:04:10;0.88;;;0.38;;
83707;SDS011;73692;49.562;11.144;2023-10-31T04:06:36;2.30;;;0.90;;
83707;SDS011;73692;49.562;11.144;2023-10-31T04:09:04;1.73;;;0.60;;
83707;SDS011;73692;49.562;11.144;2023-10-31T04:11:30;1.88;;;0.75;;
83707;SDS011;73692;49.562;11.144;2023-10-31T04:13:55;1.13;;;0.60;;
83707;SDS011;73692;49.562;11.144;2023-10-31T04:16:20;1.43;;;0.77;;
83707;SDS011;73692;49.562;11.144;2023-10-31T04:18:46;2.83;;;0.50;;
83707;SDS011;73692;49.562;11.144;2023-10-31T04:21:11;1.20;;;0.47;;
83707;SDS011;73692;49.562;11.144;2023-10-31T04:26:01;1.63;;;0.47;;
83707;SDS011;73692;49.562;11.144;2023-10-31T04:28:27;2.72;;;0.63;;
83707;SDS011;73692;49.562;11.144;2023-10-31T04:30:52;2.05;;;0.50;;
83707;SDS011;73692;49.562;11.144;2023-10-31T04:33:17;2.00;;;1.23;;
83707;SDS011;73692;49.562;11.144;2023-10-31T04:35:43;3.85;;;0.77;;
83707;SDS011;73692;49.562;11.144;2023-10-31T04:40:33;3.17;;;0.57;;
83707;SDS011;73692;49.562;11.144;2023-10-31T04:45:24;1.40;;;0.63;;
83707;SDS011;73692;49.562;11.144;2023-10-31T04:50:15;1.80;;;0.90;;
83707;SDS011;73692;49.562;11.144;2023-10-31T04:52:40;1.90;;;0.90;;
83707;SDS011;73692;49.562;11.144;2023-10-31T04:55:05;1.43;;;0.80;;
83707;SDS011;73692;49.562;11.144;2023-10-31T04:59:56;1.43;;;0.73;;
83707;SDS011;73692;49.562;11.144;2023-10-31T05:02:23;2.17;;;0.80;;
83707;SDS011;73692;49.562;11.144;2023-10-31T05:04:49;2.28;;;0.70;;
83707;SDS011;73692;49.562;11.144;2023-10-31T05:07:16;1.98;;;0.90;;
83707;SDS011;73692;49.562;11.144;2023-10-31T05:09:42;1.60;;;0.93;;
83707;SDS011;73692;49.562;11.144;2023-10-31T05:12:07;1.83;;;0.90;;
83707;SDS011;73692;49.562;11.144;2023-10-31T05:14:32;3.17;;;1.30;;
83707;SDS011;73692;49.562;11.144;2023-10-31T05:19:23;2.40;;;0.93;;
83707;SDS011;73692;49.562;11.144;2023-10-31T05:21:48;2.42;;;1.20;;
83707;SDS011;73692;49.562;11.144;2023-10-31T05:24:13;1.93;;;1.00;;
83707;SDS011;73692;49.562;11.144;2023-10-31T05:29:04;2.90;;;1.20;;
83707;SDS011;73692;49.562;11.144;2023-10-31T05:31:30;2.10;;;1.30;;
83707;SDS011;73692;49.562;11.144;2023-10-31T05:36:21;2.13;;;0.90;;
83707;SDS011;73692;49.562;11.144;2023-10-31T05:38:47;4.40;;;1.05;;
83707;SDS011;73692;49.562;11.144;2023-10-31T05:41:13;2.30;;;1.00;;
83707;SDS011;73692;49.562;11.144;2023-10-31T05:43:39;1.60;;;0.80;;
83707;SDS011;73692;49.562;11.144;2023-10-31T05:48:30;1.90;;;0.67;;
83707;SDS011;73692;49.562;11.144;2023-10-31T05:50:56;1.80;;;0.90;;
83707;SDS011;73692;49.562;11.144;2023-10-31T05:55:46;2.90;;;0.83;;
83707;SDS011;73692;49.562;11.144;2023-10-31T06:00:37;2.00;;;0.50;;
83707;SDS011;73692;49.562;11.144;2023-10-31T06:03:02;1.67;;;0.70;;
83707;SDS011;73692;49.562;11.144;2023-10-31T06:07:53;2.47;;;0.73;;
83707;SDS011;73692;49.562;11.144;2023-10-31T06:12:43;2.27;;;0.70;;
83707;SDS011;73692;49.562;11.144;2023-10-31T06:15:09;2.10;;;0.50;;
83707;SDS011;73692;49.562;11.144;2023-10-31T06:19:59;3.73;;;0.70;;
83707;SDS011;73692;49.562;11.144;2023-10-31T06:22:25;1.75;;;0.60;;
83707;SDS011;73692;49.562;11.144;2023-10-31T06:27:16;3.20;;;0.77;;
83707;SDS011;73692;49.562;11.144;2023-10-31T06:32:06;3.37;;;0.77;;
83707;SDS011;73692;49.562;11.144;2023-10-31T06:36:57;1.20;;;0.60;;
83707;SDS011;73692;49.562;11.144;2023-10-31T06:41:48;1.13;;;0.50;;
83707;SDS011;73692;49.562;11.144;2023-10-31T06:44:13;1.30;;;0.50;;
83707;SDS011;73692;49.562;11.144;2023-10-31T06:46:39;2.00;;;0.60;;
83707;SDS011;73692;49.562;11.144;2023-10-31T06:51:29;3.63;;;1.00;;
83707;SDS011;73692;49.562;11.144;2023-10-31T06:56:20;0.90;;;0.30;;
83707;SDS011;73692;49.562;11.144;2023-10-31T06:58:45;2.25;;;0.50;;
83707;SDS011;73692;49.562;11.144;2023-10-31T07:01:11;2.63;;;0.60;;
83707;SDS011;73692;49.562;11.144;2023-10-31T07:03:37;1.38;;;0.60;;
83707;SDS011;73692;49.562;11.144;2023-10-31T07:06:02;2.97;;;0.52;;
83707;SDS011;73692;49.562;11.144;2023-10-31T07:08:28;1.95;;;0.75;;
83707;SDS011;73692;49.562;11.144;2023-10-31T07:10:54;7.13;;;1.42;;
83707;SDS011;73692;49.562;11.144;2023-10-31T07:15:45;1.77;;;0.90;;
83707;SDS011;73692;49.562;11.144;2023-10-31T07:20:36;2.17;;;0.93;;
83707;SDS011;73692;49.562;11.144;2023-10-31T07:23:02;1.87;;;0.77;;
83707;SDS011;73692;49.562;11.144;2023-10-31T07:27:52;1.17;;;0.57;;
83707;SDS011;73692;49.562;11.144;2023-10-31T07:32:44;0.98;;;0.57;;
83707;SDS011;73692;49.562;11.144;2023-10-31T07:37:35;1.57;;;0.50;;
83707;SDS011;73692;49.562;11.144;2023-10-31T07:42:25;2.23;;;0.50;;
83707;SDS011;73692;49.562;11.144;2023-10-31T07:47:16;0.83;;;0.50;;
83707;SDS011;73692;49.562;11.144;2023-10-31T07:52:07;1.00;;;0.40;;
83707;SDS011;73692;49.562;11.144;2023-10-31T07:54:32;1.43;;;0.83;;
83707;SDS011;73692;49.562;11.144;2023-10-31T07:56:58;1.53;;;0.60;;
83707;SDS011;73692;49.562;11.144;2023-10-31T07:59:23;3.30;;;0.73;;
83707;SDS011;73692;49.562;11.144;2023-10-31T08:01:48;2.83;;;0.55;;
83707;SDS011;73692;49.562;11.144;2023-10-31T08:04:15;1.70;;;0.55;;
83707;SDS011;73692;49.562;11.144;2023-10-31T08:06:41;2.17;;;0.80;;
83707;SDS011;73692;49.562;11.144;2023-10-31T08:09:06;3.08;;;0.50;;
83707;SDS011;73692;49.562;11.144;2023-10-31T08:11:32;3.40;;;0.60;;
83707;SDS011;73692;49.562;11.144;2023-10-31T08:13:59;1.30;;;0.40;;
83707;SDS011;73692;49.562;11.144;2023-10-31T08:16:24;1.48;;;0.55;;
83707;SDS011;73692;49.562;11.144;2023-10-31T08:18:50;0.83;;;0.30;;
83707;SDS011;73692;49.562;11.144;2023-10-31T08:21:15;1.65;;;0.40;;
83707;SDS011;73692;49.562;11.144;2023-10-31T08:23:40;1.40;;;0.50;;
83707;SDS011;73692;49.562;11.144;2023-10-31T08:26:07;0.95;;;0.32;;
83707;SDS011;73692;49.562;11.144;2023-10-31T08:28:32;0.98;;;0.38;;
83707;SDS011;73692;49.562;11.144;2023-10-31T08:33:23;1.03;;;0.53;;
83707;SDS011;73692;49.562;11.144;2023-10-31T08:35:48;3.85;;;0.90;;
83707;SDS011;73692;49.562;11.144;2023-10-31T08:40:39;3.67;;;0.60;;
83707;SDS011;73692;49.562;11.144;2023-10-31T08:43:04;1.17;;;0.50;;
83707;SDS011;73692;49.562;11.144;2023-10-31T08:45:31;1.40;;;0.60;;
83707;SDS011;73692;49.562;11.144;2023-10-31T08:47:57;1.63;;;0.68;;
83707;SDS011;73692;49.562;11.144;2023-10-31T08:50:22;4.30;;;0.60;;
83707;SDS011;73692;49.562;11.144;2023-10-31T08:55:13;4.17;;;0.60;;
83707;SDS011;73692;49.562;11.144;2023-10-31T09:00:04;1.37;;;0.50;;
83707;SDS011;73692;49.562;11.144;2023-10-31T09:02:30;1.27;;;0.45;;
83707;SDS011;73692;49.562;11.144;2023-10-31T09:07:20;2.03;;;0.63;;
83707;SDS011;73692;49.562;11.144;2023-10-31T09:12:12;1.30;;;0.60;;
83707;SDS011;73692;49.562;11.144;2023-10-31T09:14:38;1.27;;;0.50;;
83707;SDS011;73692;49.562;11.144;2023-10-31T09:17:03;2.08;;;0.75;;
83707;SDS011;73692;49.562;11.144;2023-10-31T09:21:55;0.70;;;0.30;;
83707;SDS011;73692;49.562;11.144;2023-10-31T09:24:20;1.25;;;0.60;;
83707;SDS011;73692;49.562;11.144;2023-10-31T09:26:45;0.97;;;0.50;;
83707;SDS011;73692;49.562;11.144;2023-10-31T09:29:11;1.13;;;0.38;;
83707;SDS011;73692;49.562;11.144;2023-10-31T09:31:36;1.88;;;0.52;;
83707;SDS011;73692;49.562;11.144;2023-10-31T09:34:01;4.50;;;1.00;;
83707;SDS011;73692;49.562;11.144;2023-10-31T09:36:28;1.17;;;0.45;;
83707;SDS011;73692;49.562;11.144;2023-10-31T09:38:54;1.65;;;0.60;;
83707;SDS011;73692;49.562;11.144;2023-10-31T09:41:19;2.30;;;0.40;;
83707;SDS011;73692;49.562;11.144;2023-10-31T09:46:10;0.90;;;0.40;;
83707;SDS011;73692;49.562;11.144;2023-10-31T09:48:35;1.73;;;0.47;;
83707;SDS011;73692;49.562;11.144;2023-10-31T09:51:01;1.23;;;0.45;;
83707;SDS011;73692;49.562;11.144;2023-10-31T09:53:27;2.45;;;0.68;;
83707;SDS011;73692;49.562;11.144;2023-10-31T09:55:52;1.58;;;0.40;;
83707;SDS011;73692;49.562;11.144;2023-10-31T09:58:18;3.50;;;0.50;;
83707;SDS011;73692;49.562;11.144;2023-10-31T10:03:09;1.70;;;0.60;;
83707;SDS011;73692;49.562;11.144;2023-10-31T10:05:35;1.48;;;0.50;;
83707;SDS011;73692;49.562;11.144;2023-10-31T10:08:00;1.00;;;0.30;;
83707;SDS011;73692;49.562;11.144;2023-10-31T10:12:51;0.90;;;0.40;;
83707;SDS011;73692;49.562;11.144;2023-10-31T10:15:17;1.60;;;0.50;;
83707;SDS011;73692;49.562;11.144;2023-10-31T10:17:50;1.80;;;0.55;;
83707;SDS011;73692;49.562;11.144;2023-10-31T10:20:15;2.40;;;0.70;;
83707;SDS011;73692;49.562;11.144;2023-10-31T10:22:42;3.00;;;1.17;;
83707;SDS011;73692;49.562;11.144;2023-10-31T10:25:15;1.67;;;0.63;;
83707;SDS011;73692;49.562;11.144;2023-10-31T10:27:42;1.63;;;0.50;;
83707;SDS011;73692;49.562;11.144;2023-10-31T10:30:08;2.00;;;0.60;;
83707;SDS011;73692;49.562;11.144;2023-10-31T10:32:34;1.40;;;0.57;;
83707;SDS011;73692;49.562;11.144;2023-10-31T10:34:59;1.00;;;0.50;;
83707;SDS011;73692;49.562;11.144;2023-10-31T10:37:26;1.55;;;0.50;;
83707;SDS011;73692;49.562;11.144;2023-10-31T10:39:52;2.22;;;0.65;;
83707;SDS011;73692;49.562;11.144;2023-10-31T10:42:21;1.38;;;0.50;;
83707;SDS011;73692;49.562;11.144;2023-10-31T10:44:56;1.42;;;0.60;;
83707;SDS011;73692;49.562;11.144;2023-10-31T10:47:23;1.35;;;0.63;;
83707;SDS011;73692;49.562;11.144;2023-10-31T10:49:49;1.48;;;0.80;;
83707;SDS011;73692;49.562;11.144;2023-10-31T10:52:21;1.63;;;0.75;;
83707;SDS011;73692;49.562;11.144;2023-10-31T10:55:03;1.85;;;0.60;;
83707;SDS011;73692;49.562;11.144;2023-10-31T10:57:36;1.42;;;0.65;;
83707;SDS011;73692;49.562;11.144;2023-10-31T11:00:05;2.58;;;1.00;;
83707;SDS011;73692;49.562;11.144;2023-10-31T11:02:34;3.15;;;0.95;;
83707;SDS011;73692;49.562;11.144;2023-10-31T11:05:02;5.30;;;1.02;;
83707;SDS011;73692;49.562;11.144;2023-10-31T11:07:30;3.10;;;0.80;;
83707;SDS011;73692;49.562;11.144;2023-10-31T11:09:55;1.92;;;0.80;;
83707;SDS011;73692;49.562;11.144;2023-10-31T11:12:22;4.47;;;0.85;;
83707;SDS011;73692;49.562;11.144;2023-10-31T11:14:48;2.70;;;0.88;;
83707;SDS011;73692;49.562;11.144;2023-10-31T11:17:22;2.15;;;0.90;;
83707;SDS011;73692;49.562;11.144;2023-10-31T11:19:49;1.90;;;0.93;;
83707;SDS011;73692;49.562;11.144;2023-10-31T11:22:17;3.72;;;0.80;;
83707;SDS011;73692;49.562;11.144;2023-10-31T11:24:43;2.28;;;0.80;;
83707;SDS011;73692;49.562;11.144;2023-10-31T11:27:08;1.75;;;0.90;;
83707;SDS011;73692;49.562;11.144;2023-10-31T11:32:00;2.72;;;0.98;;
83707;SDS011;73692;49.562;11.144;2023-10-31T11:34:26;1.83;;;0.68;;
83707;SDS011;73692;49.562;11.144;2023-10-31T11:36:52;1.98;;;0.95;;
83707;SDS011;73692;49.562;11.144;2023-10-31T11:39:18;1.20;;;0.60;;
83707;SDS011;73692;49.562;11.144;2023-10-31T11:41:50;2.22;;;0.75;;
83707;SDS011;73692;49.562;11.144;2023-10-31T11:44:16;3.65;;;1.05;;
83707;SDS011;73692;49.562;11.144;2023-10-31T11:46:41;2.78;;;0.70;;
83707;SDS011;73692;49.562;11.144;2023-10-31T11:51:32;1.60;;;0.70;;
83707;SDS011;73692;49.562;11.144;2023-10-31T11:54:01;1.40;;;0.82;;
83707;SDS011;73692;49.562;11.144;2023-10-31T11:56:27;2.47;;;0.90;;
83707;SDS011;73692;49.562;11.144;2023-10-31T11:58:57;2.50;;;0.95;;
83707;SDS011;73692;49.562;11.144;2023-10-31T12:01:23;3.25;;;0.90;;
83707;SDS011;73692;49.562;11.144;2023-10-31T12:03:48;3.88;;;0.70;;
83707;SDS011;73692;49.562;11.144;2023-10-31T12:06:14;2.47;;;0.90;;
83707;SDS011;73692;49.562;11.144;2023-10-31T12:08:40;1.13;;;0.60;;
83707;SDS011;73692;49.562;11.144;2023-10-31T12:11:08;2.75;;;0.80;;
83707;SDS011;73692;49.562;11.144;2023-10-31T12:13:35;2.17;;;0.50;;
83707;SDS011;73692;49.562;11.144;2023-10-31T12:16:25;2.47;;;0.80;;
83707;SDS011;73692;49.562;11.144;2023-10-31T12:18:55;2.08;;;0.80;;
83707;SDS011;73692;49.562;11.144;2023-10-31T12:21:33;1.70;;;0.70;;
83707;SDS011;73692;49.562;11.144;2023-10-31T12:24:21;1.38;;;0.70;;
83707;SDS011;73692;49.562;11.144;2023-10-31T12:26:46;1.38;;;0.63;;
83707;SDS011;73692;49.562;11.144;2023-10-31T12:29:15;2.20;;;0.70;;
83707;SDS011;73692;49.562;11.144;2023-10-31T12:31:51;1.83;;;0.77;;
83707;SDS011;73692;49.562;11.144;2023-10-31T12:34:18;3.88;;;1.02;;
83707;SDS011;73692;49.562;11.144;2023-10-31T12:36:45;3.10;;;1.20;;
83707;SDS011;73692;49.562;11.144;2023-10-31T12:39:11;1.65;;;0.75;;
83707;SDS011;73692;49.562;11.144;2023-10-31T12:41:38;4.05;;;0.90;;
83707;SDS011;73692;49.562;11.144;2023-10-31T12:44:04;4.57;;;0.85;;
83707;SDS011;73692;49.562;11.144;2023-10-31T12:46:31;2.30;;;0.80;;
83707;SDS011;73692;49.562;11.144;2023-10-31T12:48:57;3.10;;;0.90;;
83707;SDS011;73692;49.562;11.144;2023-10-31T12:51:23;4.25;;;0.95;;
83707;SDS011;73692;49.562;11.144;2023-10-31T12:53:52;3.30;;;0.80;;
83707;SDS011;73692;49.562;11.144;2023-10-31T12:59:06;2.70;;;0.82;;
83707;SDS011;73692;49.562;11.144;2023-10-31T13:01:33;3.03;;;0.65;;
83707;SDS011;73692;49.562;11.144;2023-10-31T13:04:00;1.65;;;0.70;;
83707;SDS011;73692;49.562;11.144;2023-10-31T13:06:25;3.17;;;0.63;;
83707;SDS011;73692;49.562;11.144;2023-10-31T13:08:51;2.30;;;0.83;;
83707;SDS011;73692;49.562;11.144;2023-10-31T13:11:16;1.92;;;0.70;;
83707;SDS011;73692;49.562;11.144;2023-10-31T13:13:42;2.65;;;0.60;;
83707;SDS011;73692;49.562;11.144;2023-10-31T13:16:07;2.35;;;0.70;;
83707;SDS011;73692;49.562;11.144;2023-10-31T13:18:33;3.50;;;0.93;;
83707;SDS011;73692;49.562;11.144;2023-10-31T13:20:58;4.27;;;0.90;;
83707;SDS011;73692;49.562;11.144;2023-10-31T13:23:23;2.03;;;0.70;;
83707;SDS011;73692;49.562;11.144;2023-10-31T13:25:48;1.77;;;0.73;;
83707;SDS011;73692;49.562;11.144;2023-10-31T13:28:14;2.00;;;0.65;;
83707;SDS011;73692;49.562;11.144;2023-10-31T13:30:39;1.33;;;0.52;;
83707;SDS011;73692;49.562;11.144;2023-10-31T13:33:05;2.17;;;0.50;;
83707;SDS011;73692;49.562;11.144;2023-10-31T13:35:32;3.22;;;0.80;;
83707;SDS011;73692;49.562;11.144;2023-10-31T13:37:58;1.80;;;0.70;;
83707;SDS011;73692;49.562;11.144;2023-10-31T13:40:24;2.50;;;0.73;;
83707;SDS011;73692;49.562;11.144;2023-10-31T13:42:49;3.27;;;0.70;;
83707;SDS011;73692;49.562;11.144;2023-10-31T13:45:14;2.17;;;0.77;;
83707;SDS011;73692;49.562;11.144;2023-10-31T13:47:40;2.42;;;0.80;;
83707;SDS011;73692;49.562;11.144;2023-10-31T13:50:05;2.87;;;0.80;;
83707;SDS011;73692;49.562;11.144;2023-10-31T13:52:32;2.95;;;1.00;;
83707;SDS011;73692;49.562;11.144;2023-10-31T13:54:57;2.13;;;0.77;;
83707;SDS011;73692;49.562;11.144;2023-10-31T13:57:23;1.60;;;0.73;;
83707;SDS011;73692;49.562;11.144;2023-10-31T13:59:49;1.67;;;0.55;;
83707;SDS011;73692;49.562;11.144;2023-10-31T14:02:15;5.85;;;0.75;;
83707;SDS011;73692;49.562;11.144;2023-10-31T14:04:41;2.25;;;0.52;;
83707;SDS011;73692;49.562;11.144;2023-10-31T14:07:07;1.83;;;0.93;;
83707;SDS011;73692;49.562;11.144;2023-10-31T14:09:32;3.85;;;0.60;;
83707;SDS011;73692;49.562;11.144;2023-10-31T14:11:58;3.13;;;1.00;;
83707;SDS011;73692;49.562;11.144;2023-10-31T14:14:23;3.17;;;0.73;;
83707;SDS011;73692;49.562;11.144;2023-10-31T14:16:49;2.65;;;0.63;;
83707;SDS011;73692;49.562;11.144;2023-10-31T14:19:14;2.05;;;0.82;;
83707;SDS011;73692;49.562;11.144;2023-10-31T14:21:41;3.63;;;0.90;;
83707;SDS011;73692;49.562;11.144;2023-10-31T14:24:07;1.60;;;0.60;;
83707;SDS011;73692;49.562;11.144;2023-10-31T14:26:34;4.38;;;1.20;;
83707;SDS011;73692;49.562;11.144;2023-10-31T14:28:59;3.83;;;1.00;;
83707;SDS011;73692;49.562;11.144;2023-10-31T14:31:25;2.88;;;1.00;;
83707;SDS011;73692;49.562;11.144;2023-10-31T14:33:50;5.57;;;1.17;;
83707;SDS011;73692;49.562;11.144;2023-10-31T14:36:15;3.15;;;1.30;;
83707;SDS011;73692;49.562;11.144;2023-10-31T14:38:41;2.30;;;0.65;;
83707;SDS011;73692;49.562;11.144;2023-10-31T14:41:08;5.47;;;0.90;;
83707;SDS011;73692;49.562;11.144;2023-10-31T14:43:33;2.65;;;0.88;;
83707;SDS011;73692;49.562;11.144;2023-10-31T14:45:59;3.72;;;0.85;;
83707;SDS011;73692;49.562;11.144;2023-10-31T14:48:24;2.78;;;0.95;;
83707;SDS011;73692;49.562;11.144;2023-10-31T14:50:50;3.72;;;0.88;;
83707;SDS011;73692;49.562;11.144;2023-10-31T14:53:15;1.75;;;0.80;;
83707;SDS011;73692;49.562;11.144;2023-10-31T14:55:41;1.73;;;0.60;;
83707;SDS011;73692;49.562;11.144;2023-10-31T14:58:06;4.03;;;0.90;;
83707;SDS011;73692;49.562;11.144;2023-10-31T15:00:35;3.90;;;0.80;;
83707;SDS011;73692;49.562;11.144;2023-10-31T15:03:00;2.00;;;0.90;;
83707;SDS011;73692;49.562;11.144;2023-10-31T15:05:26;5.80;;;1.20;;
83707;SDS011;73692;49.562;11.144;2023-10-31T15:07:51;3.25;;;0.82;;
83707;SDS011;73692;49.562;11.144;2023-10-31T15:10:17;2.95;;;0.75;;
83707;SDS011;73692;49.562;11.144;2023-10-31T15:12:49;4.05;;;0.90;;
83707;SDS011;73692;49.562;11.144;2023-10-31T15:15:15;2.92;;;0.70;;
83707;SDS011;73692;49.562;11.144;2023-10-31T15:17:41;3.30;;;0.70;;
83707;SDS011;73692;49.562;11.144;2023-10-31T15:20:06;1.92;;;0.82;;
83707;SDS011;73692;49.562;11.144;2023-10-31T15:22:35;3.28;;;1.02;;
83707;SDS011;73692;49.562;11.144;2023-10-31T15:25:00;2.65;;;0.70;;
83707;SDS011;73692;49.562;11.144;2023-10-31T15:27:26;1.95;;;0.80;;
83707;SDS011;73692;49.562;11.144;2023-10-31T15:29:52;3.47;;;0.70;;
83707;SDS011;73692;49.562;11.144;2023-10-31T15:32:17;4.35;;;0.80;;
83707;SDS011;73692;49.562;11.144;2023-10-31T15:34:43;1.58;;;0.70;;
83707;SDS011;73692;49.562;11.144;2023-10-31T15:37:08;1.23;;;0.60;;
83707;SDS011;73692;49.562;11.144;2023-10-31T15:39:36;3.17;;;0.80;;
83707;SDS011;73692;49.562;11.144;2023-10-31T15:42:02;2.42;;;1.65;;
83707;SDS011;73692;49.562;11.144;2023-10-31T15:44:27;2.65;;;0.80;;
83707;SDS011;73692;49.562;11.144;2023-10-31T15:46:53;1.73;;;0.60;;
83707;SDS011;73692;49.562;11.144;2023-10-31T15:49:18;2.40;;;1.10;;
83707;SDS011;73692;49.562;11.144;2023-10-31T15:51:44;3.13;;;1.10;;
83707;SDS011;73692;49.562;11.144;2023-10-31T15:54:09;3.17;;;1.35;;
83707;SDS011;73692;49.562;11.144;2023-10-31T15:56:34;4.57;;;1.95;;
83707;SDS011;73692;49.562;11.144;2023-10-31T15:58:59;4.20;;;1.23;;
83707;SDS011;73692;49.562;11.144;2023-10-31T16:01:27;4.63;;;1.20;;
83707;SDS011;73692;49.562;11.144;2023-10-31T16:03:52;6.20;;;2.15;;
83707;SDS011;73692;49.562;11.144;2023-10-31T16:06:18;3.83;;;1.23;;
83707;SDS011;73692;49.562;11.144;2023-10-31T16:08:43;8.20;;;1.52;;
83707;SDS011;73692;49.562;11.144;2023-10-31T16:11:08;6.45;;;1.70;;
83707;SDS011;73692;49.562;11.144;2023-10-31T16:13:34;5.90;;;1.88;;